sensor_id;sensor_type;location;lat;lon;timestamp;temperature;humidity
13115;DHT22;6623;52.120;8.660;2023-08-01T00:00:29;24.40;56.50
13115;DHT22;6623;52.120;8.660;2023-08-01T00:02:54;24.40;56.50
13115;DHT22;6623;52.120;8.660;2023-08-01T00:05:20;24.40;56.50
13115;DHT22;6623;52.120;8.660;2023-08-01T00:07:46;24.40;56.50
13115;DHT22;6623;52.120;8.660;2023-08-01T00:10:11;24.40;56.50
13115;DHT22;6623;52.120;8.660;2023-08-01T00:12:37;24.40;56.50
13115;DHT22;6623;52.120;8.660;2023-08-01T00:15:03;24.40;56.50
13115;DHT22;6623;52.120;8.660;2023-08-01T00:17:29;24.40;56.50
13115;DHT22;6623;52.120;8.660;2023-08-01T00:19:55;24.30;56.50
13115;DHT22;6623;52.120;8.660;2023-08-01T00:22:21;24.30;56.50
13115;DHT22;6623;52.120;8.660;2023-08-01T00:24:46;24.40;56.50
13115;DHT22;6623;52.120;8.660;2023-08-01T00:27:13;24.40;56.60
13115;DHT22;6623;52.120;8.660;2023-08-01T00:29:39;24.30;56.50
13115;DHT22;6623;52.120;8.660;2023-08-01T00:32:05;24.40;56.50
13115;DHT22;6623;52.120;8.660;2023-08-01T00:34:30;24.40;56.50
13115;DHT22;6623;52.120;8.660;2023-08-01T00:36:57;24.40;56.50
13115;DHT22;6623;52.120;8.660;2023-08-01T00:39:22;24.40;56.50
13115;DHT22;6623;52.120;8.660;2023-08-01T00:41:48;24.30;56.50
13115;DHT22;6623;52.120;8.660;2023-08-01T00:44:13;24.40;56.50
13115;DHT22;6623;52.120;8.660;2023-08-01T00:46:39;24.40;56.60
13115;DHT22;6623;52.120;8.660;2023-08-01T00:49:05;24.30;56.50
13115;DHT22;6623;52.120;8.660;2023-08-01T00:51:31;24.30;56.50
13115;DHT22;6623;52.120;8.660;2023-08-01T00:53:58;24.40;56.50
13115;DHT22;6623;52.120;8.660;2023-08-01T00:56:24;24.30;56.50
13115;DHT22;6623;52.120;8.660;2023-08-01T00:58:49;24.30;56.50
13115;DHT22;6623;52.120;8.660;2023-08-01T01:01:15;24.30;56.50
13115;DHT22;6623;52.120;8.660;2023-08-01T01:03:40;24.30;56.50
13115;DHT22;6623;52.120;8.660;2023-08-01T01:06:11;24.30;56.50
13115;DHT22;6623;52.120;8.660;2023-08-01T01:08:41;24.30;56.50
13115;DHT22;6623;52.120;8.660;2023-08-01T01:11:07;24.40;56.50
13115;DHT22;6623;52.120;8.660;2023-08-01T01:13:33;24.40;56.50
13115;DHT22;6623;52.120;8.660;2023-08-01T01:15:58;24.40;56.50
13115;DHT22;6623;52.120;8.660;2023-08-01T01:18:24;24.30;56.40
13115;DHT22;6623;52.120;8.660;2023-08-01T01:20:49;24.30;56.50
13115;DHT22;6623;52.120;8.660;2023-08-01T01:23:16;24.30;56.40
13115;DHT22;6623;52.120;8.660;2023-08-01T01:25:42;24.40;56.50
13115;DHT22;6623;52.120;8.660;2023-08-01T01:28:08;24.30;56.40
13115;DHT22;6623;52.120;8.660;2023-08-01T01:30:35;24.40;56.40
13115;DHT22;6623;52.120;8.660;2023-08-01T01:33:02;24.40;56.40
13115;DHT22;6623;52.120;8.660;2023-08-01T01:35:29;24.30;56.40
13115;DHT22;6623;52.120;8.660;2023-08-01T01:37:54;24.40;56.40
13115;DHT22;6623;52.120;8.660;2023-08-01T01:40:20;24.40;56.40
13115;DHT22;6623;52.120;8.660;2023-08-01T01:42:45;24.30;56.30
13115;DHT22;6623;52.120;8.660;2023-08-01T01:45:11;24.30;56.40
13115;DHT22;6623;52.120;8.660;2023-08-01T01:47:37;24.30;56.30
13115;DHT22;6623;52.120;8.660;2023-08-01T01:50:02;24.40;56.40
13115;DHT22;6623;52.120;8.660;2023-08-01T01:52:28;24.30;56.30
13115;DHT22;6623;52.120;8.660;2023-08-01T01:54:54;24.40;56.40
13115;DHT22;6623;52.120;8.660;2023-08-01T01:57:19;24.30;56.40
13115;DHT22;6623;52.120;8.660;2023-08-01T01:59:45;24.40;56.40
13115;DHT22;6623;52.120;8.660;2023-08-01T02:02:10;24.30;56.30
13115;DHT22;6623;52.120;8.660;2023-08-01T02:04:36;24.30;56.30
13115;DHT22;6623;52.120;8.660;2023-08-01T02:07:01;24.30;56.30
13115;DHT22;6623;52.120;8.660;2023-08-01T02:09:28;24.40;56.30
13115;DHT22;6623;52.120;8.660;2023-08-01T02:11:53;24.40;56.40
13115;DHT22;6623;52.120;8.660;2023-08-01T02:14:19;24.40;56.30
13115;DHT22;6623;52.120;8.660;2023-08-01T02:16:44;24.30;56.30
13115;DHT22;6623;52.120;8.660;2023-08-01T02:19:10;24.40;56.30
13115;DHT22;6623;52.120;8.660;2023-08-01T02:21:36;24.40;56.30
13115;DHT22;6623;52.120;8.660;2023-08-01T02:24:01;24.40;56.30
13115;DHT22;6623;52.120;8.660;2023-08-01T02:26:28;24.30;56.20
13115;DHT22;6623;52.120;8.660;2023-08-01T02:28:54;24.40;56.30
13115;DHT22;6623;52.120;8.660;2023-08-01T02:31:20;24.40;56.30
13115;DHT22;6623;52.120;8.660;2023-08-01T02:33:45;24.40;56.30
13115;DHT22;6623;52.120;8.660;2023-08-01T02:36:11;24.30;56.20
13115;DHT22;6623;52.120;8.660;2023-08-01T02:38:36;24.30;56.20
13115;DHT22;6623;52.120;8.660;2023-08-01T02:41:02;24.30;56.20
13115;DHT22;6623;52.120;8.660;2023-08-01T02:43:27;24.30;56.20
13115;DHT22;6623;52.120;8.660;2023-08-01T02:45:53;24.40;56.20
13115;DHT22;6623;52.120;8.660;2023-08-01T02:48:19;24.30;56.10
13115;DHT22;6623;52.120;8.660;2023-08-01T02:50:45;24.30;56.10
13115;DHT22;6623;52.120;8.660;2023-08-01T02:53:11;24.40;56.20
13115;DHT22;6623;52.120;8.660;2023-08-01T02:55:36;24.40;56.20
13115;DHT22;6623;52.120;8.660;2023-08-01T02:58:02;24.40;56.20
13115;DHT22;6623;52.120;8.660;2023-08-01T03:00:27;24.40;56.20
13115;DHT22;6623;52.120;8.660;2023-08-01T03:02:53;24.40;56.20
13115;DHT22;6623;52.120;8.660;2023-08-01T03:05:18;24.30;56.10
13115;DHT22;6623;52.120;8.660;2023-08-01T03:07:44;24.40;56.20
13115;DHT22;6623;52.120;8.660;2023-08-01T03:10:09;24.30;56.10
13115;DHT22;6623;52.120;8.660;2023-08-01T03:12:36;24.30;56.10
13115;DHT22;6623;52.120;8.660;2023-08-01T03:15:02;24.30;56.10
13115;DHT22;6623;52.120;8.660;2023-08-01T03:17:28;24.40;56.20
13115;DHT22;6623;52.120;8.660;2023-08-01T03:19:53;24.40;56.20
13115;DHT22;6623;52.120;8.660;2023-08-01T03:22:19;24.40;56.10
13115;DHT22;6623;52.120;8.660;2023-08-01T03:24:44;24.40;56.10
13115;DHT22;6623;52.120;8.660;2023-08-01T03:27:10;24.40;56.10
13115;DHT22;6623;52.120;8.660;2023-08-01T03:29:36;24.30;56.10
13115;DHT22;6623;52.120;8.660;2023-08-01T03:32:01;24.40;56.20
13115;DHT22;6623;52.120;8.660;2023-08-01T03:34:27;24.30;56.10
13115;DHT22;6623;52.120;8.660;2023-08-01T03:36:52;24.40;56.10
13115;DHT22;6623;52.120;8.660;2023-08-01T03:39:18;24.30;56.10
13115;DHT22;6623;52.120;8.660;2023-08-01T03:41:43;24.40;56.10
13115;DHT22;6623;52.120;8.660;2023-08-01T03:44:09;24.40;56.10
13115;DHT22;6623;52.120;8.660;2023-08-01T03:46:34;24.30;56.10
13115;DHT22;6623;52.120;8.660;2023-08-01T03:49:00;24.40;56.20
13115;DHT22;6623;52.120;8.660;2023-08-01T03:51:25;24.30;56.10
13115;DHT22;6623;52.120;8.660;2023-08-01T03:53:51;24.30;56.10
13115;DHT22;6623;52.120;8.660;2023-08-01T03:56:16;24.40;56.10
13115;DHT22;6623;52.120;8.660;2023-08-01T03:58:42;24.40;56.10
13115;DHT22;6623;52.120;8.660;2023-08-01T04:01:08;24.30;56.10
13115;DHT22;6623;52.120;8.660;2023-08-01T04:03:33;24.30;56.10
13115;DHT22;6623;52.120;8.660;2023-08-01T04:05:59;24.40;56.10
13115;DHT22;6623;52.120;8.660;2023-08-01T04:08:24;24.30;56.10
13115;DHT22;6623;52.120;8.660;2023-08-01T04:10:50;24.30;56.00
13115;DHT22;6623;52.120;8.660;2023-08-01T04:13:16;24.30;56.10
13115;DHT22;6623;52.120;8.660;2023-08-01T04:15:41;24.30;56.10
13115;DHT22;6623;52.120;8.660;2023-08-01T04:18:07;24.40;56.10
13115;DHT22;6623;52.120;8.660;2023-08-01T04:20:32;24.30;56.00
13115;DHT22;6623;52.120;8.660;2023-08-01T04:22:58;24.40;56.10
13115;DHT22;6623;52.120;8.660;2023-08-01T04:25:24;24.30;56.00
13115;DHT22;6623;52.120;8.660;2023-08-01T04:27:52;24.40;56.10
13115;DHT22;6623;52.120;8.660;2023-08-01T04:30:17;24.30;56.00
13115;DHT22;6623;52.120;8.660;2023-08-01T04:32:43;24.30;56.00
13115;DHT22;6623;52.120;8.660;2023-08-01T04:35:08;24.30;56.00
13115;DHT22;6623;52.120;8.660;2023-08-01T04:37:34;24.30;56.00
13115;DHT22;6623;52.120;8.660;2023-08-01T04:39:59;24.40;56.00
13115;DHT22;6623;52.120;8.660;2023-08-01T04:42:25;24.30;56.00
13115;DHT22;6623;52.120;8.660;2023-08-01T04:44:50;24.30;56.00
13115;DHT22;6623;52.120;8.660;2023-08-01T04:47:18;24.40;56.00
13115;DHT22;6623;52.120;8.660;2023-08-01T04:49:44;24.30;56.00
13115;DHT22;6623;52.120;8.660;2023-08-01T04:52:10;24.30;55.90
13115;DHT22;6623;52.120;8.660;2023-08-01T04:54:35;24.30;56.00
13115;DHT22;6623;52.120;8.660;2023-08-01T04:57:01;24.30;55.90
13115;DHT22;6623;52.120;8.660;2023-08-01T04:59:26;24.30;56.00
13115;DHT22;6623;52.120;8.660;2023-08-01T05:01:52;24.30;55.90
13115;DHT22;6623;52.120;8.660;2023-08-01T05:04:17;24.30;55.90
13115;DHT22;6623;52.120;8.660;2023-08-01T05:06:43;24.30;55.90
13115;DHT22;6623;52.120;8.660;2023-08-01T05:09:08;24.30;55.90
13115;DHT22;6623;52.120;8.660;2023-08-01T05:11:34;24.30;55.90
13115;DHT22;6623;52.120;8.660;2023-08-01T05:13:59;24.30;55.90
13115;DHT22;6623;52.120;8.660;2023-08-01T05:16:25;24.30;55.90
13115;DHT22;6623;52.120;8.660;2023-08-01T05:18:50;24.30;56.00
13115;DHT22;6623;52.120;8.660;2023-08-01T05:21:16;24.30;55.90
13115;DHT22;6623;52.120;8.660;2023-08-01T05:23:41;24.30;55.90
13115;DHT22;6623;52.120;8.660;2023-08-01T05:26:07;24.30;56.00
13115;DHT22;6623;52.120;8.660;2023-08-01T05:28:32;24.30;56.00
13115;DHT22;6623;52.120;8.660;2023-08-01T05:30:58;24.30;56.00
13115;DHT22;6623;52.120;8.660;2023-08-01T05:33:23;24.30;56.00
13115;DHT22;6623;52.120;8.660;2023-08-01T05:35:49;24.30;55.90
13115;DHT22;6623;52.120;8.660;2023-08-01T05:38:15;24.30;56.00
13115;DHT22;6623;52.120;8.660;2023-08-01T05:40:41;24.30;55.90
13115;DHT22;6623;52.120;8.660;2023-08-01T05:43:06;24.30;56.00
13115;DHT22;6623;52.120;8.660;2023-08-01T05:45:34;24.30;56.50
13115;DHT22;6623;52.120;8.660;2023-08-01T05:48:00;24.30;55.90
13115;DHT22;6623;52.120;8.660;2023-08-01T05:50:26;24.30;55.90
13115;DHT22;6623;52.120;8.660;2023-08-01T05:52:51;24.30;55.90
13115;DHT22;6623;52.120;8.660;2023-08-01T05:55:17;24.30;55.90
13115;DHT22;6623;52.120;8.660;2023-08-01T05:57:42;24.30;56.00
13115;DHT22;6623;52.120;8.660;2023-08-01T06:00:08;24.30;56.00
13115;DHT22;6623;52.120;8.660;2023-08-01T06:02:34;24.30;55.90
13115;DHT22;6623;52.120;8.660;2023-08-01T06:04:59;24.30;55.90
13115;DHT22;6623;52.120;8.660;2023-08-01T06:07:25;24.30;56.00
13115;DHT22;6623;52.120;8.660;2023-08-01T06:09:51;24.30;56.00
13115;DHT22;6623;52.120;8.660;2023-08-01T06:12:18;24.30;55.90
13115;DHT22;6623;52.120;8.660;2023-08-01T06:14:43;24.30;56.00
13115;DHT22;6623;52.120;8.660;2023-08-01T06:17:09;24.30;56.00
13115;DHT22;6623;52.120;8.660;2023-08-01T06:19:35;24.30;56.00
13115;DHT22;6623;52.120;8.660;2023-08-01T06:22:00;24.30;56.00
13115;DHT22;6623;52.120;8.660;2023-08-01T06:24:26;24.30;56.00
13115;DHT22;6623;52.120;8.660;2023-08-01T06:26:51;24.30;55.90
13115;DHT22;6623;52.120;8.660;2023-08-01T06:29:17;24.30;56.00
13115;DHT22;6623;52.120;8.660;2023-08-01T06:31:42;24.30;56.00
13115;DHT22;6623;52.120;8.660;2023-08-01T06:34:08;24.30;55.90
13115;DHT22;6623;52.120;8.660;2023-08-01T06:36:33;24.30;55.90
13115;DHT22;6623;52.120;8.660;2023-08-01T06:39:00;24.30;55.90
13115;DHT22;6623;52.120;8.660;2023-08-01T06:41:26;24.30;55.90
13115;DHT22;6623;52.120;8.660;2023-08-01T06:43:51;24.30;55.90
13115;DHT22;6623;52.120;8.660;2023-08-01T06:46:17;24.30;55.90
13115;DHT22;6623;52.120;8.660;2023-08-01T06:48:42;24.30;55.90
13115;DHT22;6623;52.120;8.660;2023-08-01T06:51:08;24.30;55.90
13115;DHT22;6623;52.120;8.660;2023-08-01T06:53:33;24.30;55.90
13115;DHT22;6623;52.120;8.660;2023-08-01T06:55:59;24.30;55.90
13115;DHT22;6623;52.120;8.660;2023-08-01T06:58:24;24.30;56.50
13115;DHT22;6623;52.120;8.660;2023-08-01T07:00:51;24.30;55.90
13115;DHT22;6623;52.120;8.660;2023-08-01T07:03:17;24.30;55.90
13115;DHT22;6623;52.120;8.660;2023-08-01T07:05:42;24.30;55.80
13115;DHT22;6623;52.120;8.660;2023-08-01T07:08:08;24.30;55.90
13115;DHT22;6623;52.120;8.660;2023-08-01T07:10:36;24.30;55.90
13115;DHT22;6623;52.120;8.660;2023-08-01T07:13:02;24.30;55.90
13115;DHT22;6623;52.120;8.660;2023-08-01T07:15:30;24.30;55.90
13115;DHT22;6623;52.120;8.660;2023-08-01T07:17:56;24.30;55.90
13115;DHT22;6623;52.120;8.660;2023-08-01T07:20:21;24.30;55.90
13115;DHT22;6623;52.120;8.660;2023-08-01T07:22:47;24.30;56.50
13115;DHT22;6623;52.120;8.660;2023-08-01T07:25:12;24.30;55.90
13115;DHT22;6623;52.120;8.660;2023-08-01T07:27:38;24.30;55.90
13115;DHT22;6623;52.120;8.660;2023-08-01T07:30:05;24.30;55.90
13115;DHT22;6623;52.120;8.660;2023-08-01T07:32:30;24.30;55.90
13115;DHT22;6623;52.120;8.660;2023-08-01T07:34:56;24.30;55.90
13115;DHT22;6623;52.120;8.660;2023-08-01T07:37:21;24.30;55.90
13115;DHT22;6623;52.120;8.660;2023-08-01T07:39:49;24.30;55.90
13115;DHT22;6623;52.120;8.660;2023-08-01T07:42:14;24.30;55.90
13115;DHT22;6623;52.120;8.660;2023-08-01T07:44:40;24.30;55.90
13115;DHT22;6623;52.120;8.660;2023-08-01T07:47:05;24.30;55.90
13115;DHT22;6623;52.120;8.660;2023-08-01T07:49:31;24.30;55.90
13115;DHT22;6623;52.120;8.660;2023-08-01T07:51:56;24.30;55.90
13115;DHT22;6623;52.120;8.660;2023-08-01T07:54:23;24.30;56.00
13115;DHT22;6623;52.120;8.660;2023-08-01T07:56:49;24.30;55.90
13115;DHT22;6623;52.120;8.660;2023-08-01T07:59:14;24.30;55.90
13115;DHT22;6623;52.120;8.660;2023-08-01T08:01:41;24.30;55.90
13115;DHT22;6623;52.120;8.660;2023-08-01T08:04:06;24.30;55.90
13115;DHT22;6623;52.120;8.660;2023-08-01T08:06:32;24.30;55.90
13115;DHT22;6623;52.120;8.660;2023-08-01T08:08:57;24.30;55.90
13115;DHT22;6623;52.120;8.660;2023-08-01T08:11:23;24.30;55.90
13115;DHT22;6623;52.120;8.660;2023-08-01T08:13:48;24.30;55.90
13115;DHT22;6623;52.120;8.660;2023-08-01T08:16:14;24.30;55.90
13115;DHT22;6623;52.120;8.660;2023-08-01T08:18:40;24.30;55.90
13115;DHT22;6623;52.120;8.660;2023-08-01T08:21:05;24.30;55.90
13115;DHT22;6623;52.120;8.660;2023-08-01T08:23:31;24.30;56.00
13115;DHT22;6623;52.120;8.660;2023-08-01T08:25:56;24.30;55.90
13115;DHT22;6623;52.120;8.660;2023-08-01T08:28:29;24.30;56.00
13115;DHT22;6623;52.120;8.660;2023-08-01T08:30:56;24.30;55.90
13115;DHT22;6623;52.120;8.660;2023-08-01T08:33:22;24.30;55.90
13115;DHT22;6623;52.120;8.660;2023-08-01T08:35:48;24.30;55.90
13115;DHT22;6623;52.120;8.660;2023-08-01T08:38:13;24.30;55.90
13115;DHT22;6623;52.120;8.660;2023-08-01T08:40:41;24.30;55.90
13115;DHT22;6623;52.120;8.660;2023-08-01T08:43:09;24.30;55.90
13115;DHT22;6623;52.120;8.660;2023-08-01T08:45:35;24.30;55.90
13115;DHT22;6623;52.120;8.660;2023-08-01T08:48:09;24.30;55.90
13115;DHT22;6623;52.120;8.660;2023-08-01T08:50:38;24.30;55.80
13115;DHT22;6623;52.120;8.660;2023-08-01T08:53:04;24.30;55.90
13115;DHT22;6623;52.120;8.660;2023-08-01T08:55:30;24.30;55.80
13115;DHT22;6623;52.120;8.660;2023-08-01T08:57:57;24.30;55.90
13115;DHT22;6623;52.120;8.660;2023-08-01T09:00:25;24.30;55.80
13115;DHT22;6623;52.120;8.660;2023-08-01T09:02:53;24.30;55.80
13115;DHT22;6623;52.120;8.660;2023-08-01T09:05:19;24.30;55.80
13115;DHT22;6623;52.120;8.660;2023-08-01T09:07:47;24.30;55.80
13115;DHT22;6623;52.120;8.660;2023-08-01T09:10:14;24.30;55.90
13115;DHT22;6623;52.120;8.660;2023-08-01T09:12:40;24.30;55.80
13115;DHT22;6623;52.120;8.660;2023-08-01T09:15:07;24.30;55.80
13115;DHT22;6623;52.120;8.660;2023-08-01T09:17:32;24.30;55.80
13115;DHT22;6623;52.120;8.660;2023-08-01T09:20:05;24.30;55.80
13115;DHT22;6623;52.120;8.660;2023-08-01T09:22:47;24.30;55.80
13115;DHT22;6623;52.120;8.660;2023-08-01T09:25:13;24.20;55.80
13115;DHT22;6623;52.120;8.660;2023-08-01T09:27:39;24.30;55.80
13115;DHT22;6623;52.120;8.660;2023-08-01T09:30:10;24.30;55.80
13115;DHT22;6623;52.120;8.660;2023-08-01T09:32:36;24.20;55.80
13115;DHT22;6623;52.120;8.660;2023-08-01T09:35:02;24.30;56.50
13115;DHT22;6623;52.120;8.660;2023-08-01T09:37:41;24.30;55.90
13115;DHT22;6623;52.120;8.660;2023-08-01T09:40:08;24.20;55.80
13115;DHT22;6623;52.120;8.660;2023-08-01T09:42:42;24.30;55.80
13115;DHT22;6623;52.120;8.660;2023-08-01T09:45:18;24.20;55.80
13115;DHT22;6623;52.120;8.660;2023-08-01T09:47:45;24.20;55.80
13115;DHT22;6623;52.120;8.660;2023-08-01T09:50:12;24.20;55.80
13115;DHT22;6623;52.120;8.660;2023-08-01T09:52:38;24.20;55.80
13115;DHT22;6623;52.120;8.660;2023-08-01T09:55:04;24.20;55.80
13115;DHT22;6623;52.120;8.660;2023-08-01T09:57:31;24.30;55.90
13115;DHT22;6623;52.120;8.660;2023-08-01T09:59:57;24.20;55.80
13115;DHT22;6623;52.120;8.660;2023-08-01T10:02:25;24.20;55.80
13115;DHT22;6623;52.120;8.660;2023-08-01T10:04:57;24.20;55.80
13115;DHT22;6623;52.120;8.660;2023-08-01T10:07:24;24.20;55.90
13115;DHT22;6623;52.120;8.660;2023-08-01T10:09:57;24.20;55.80
13115;DHT22;6623;52.120;8.660;2023-08-01T10:12:26;24.20;55.80
13115;DHT22;6623;52.120;8.660;2023-08-01T10:14:53;24.20;55.80
13115;DHT22;6623;52.120;8.660;2023-08-01T10:17:19;24.20;55.90
13115;DHT22;6623;52.120;8.660;2023-08-01T10:19:46;24.20;55.90
13115;DHT22;6623;52.120;8.660;2023-08-01T10:22:14;24.20;55.90
13115;DHT22;6623;52.120;8.660;2023-08-01T10:24:40;24.20;55.90
13115;DHT22;6623;52.120;8.660;2023-08-01T10:29:39;24.20;55.80
13115;DHT22;6623;52.120;8.660;2023-08-01T10:32:06;24.20;55.80
13115;DHT22;6623;52.120;8.660;2023-08-01T10:34:32;24.20;55.80
13115;DHT22;6623;52.120;8.660;2023-08-01T10:36:58;24.20;55.90
13115;DHT22;6623;52.120;8.660;2023-08-01T10:39:26;24.20;55.80
13115;DHT22;6623;52.120;8.660;2023-08-01T10:42:03;24.20;55.90
13115;DHT22;6623;52.120;8.660;2023-08-01T10:44:30;24.20;55.80
13115;DHT22;6623;52.120;8.660;2023-08-01T10:47:00;24.20;55.80
13115;DHT22;6623;52.120;8.660;2023-08-01T10:49:36;24.20;55.80
13115;DHT22;6623;52.120;8.660;2023-08-01T10:52:03;24.20;55.80
13115;DHT22;6623;52.120;8.660;2023-08-01T10:54:29;24.20;55.80
13115;DHT22;6623;52.120;8.660;2023-08-01T10:56:56;24.20;55.80
13115;DHT22;6623;52.120;8.660;2023-08-01T10:59:25;24.20;55.80
13115;DHT22;6623;52.120;8.660;2023-08-01T11:01:58;24.20;55.80
13115;DHT22;6623;52.120;8.660;2023-08-01T11:04:24;24.20;55.80
13115;DHT22;6623;52.120;8.660;2023-08-01T11:06:52;24.20;55.80
13115;DHT22;6623;52.120;8.660;2023-08-01T11:09:23;24.20;55.80
13115;DHT22;6623;52.120;8.660;2023-08-01T11:11:55;24.20;55.80
13115;DHT22;6623;52.120;8.660;2023-08-01T11:14:23;24.20;55.80
13115;DHT22;6623;52.120;8.660;2023-08-01T11:16:49;24.20;55.80
13115;DHT22;6623;52.120;8.660;2023-08-01T11:19:19;24.20;55.80
13115;DHT22;6623;52.120;8.660;2023-08-01T11:21:45;24.20;55.90
13115;DHT22;6623;52.120;8.660;2023-08-01T11:24:11;24.20;55.90
13115;DHT22;6623;52.120;8.660;2023-08-01T11:26:44;24.20;55.90
13115;DHT22;6623;52.120;8.660;2023-08-01T11:29:11;24.20;55.90
13115;DHT22;6623;52.120;8.660;2023-08-01T11:31:37;24.20;55.90
13115;DHT22;6623;52.120;8.660;2023-08-01T11:34:02;24.20;55.90
13115;DHT22;6623;52.120;8.660;2023-08-01T11:36:29;24.20;56.00
13115;DHT22;6623;52.120;8.660;2023-08-01T11:38:57;24.20;56.00
13115;DHT22;6623;52.120;8.660;2023-08-01T11:41:24;24.20;56.00
13115;DHT22;6623;52.120;8.660;2023-08-01T11:43:51;24.20;56.00
13115;DHT22;6623;52.120;8.660;2023-08-01T11:46:17;24.20;55.90
13115;DHT22;6623;52.120;8.660;2023-08-01T11:48:46;24.20;56.00
13115;DHT22;6623;52.120;8.660;2023-08-01T11:51:12;24.20;56.00
13115;DHT22;6623;52.120;8.660;2023-08-01T11:53:37;24.20;56.00
13115;DHT22;6623;52.120;8.660;2023-08-01T11:56:04;24.20;55.90
13115;DHT22;6623;52.120;8.660;2023-08-01T11:58:31;24.20;55.90
13115;DHT22;6623;52.120;8.660;2023-08-01T12:01:05;24.20;56.00
13115;DHT22;6623;52.120;8.660;2023-08-01T12:03:31;24.20;55.90
13115;DHT22;6623;52.120;8.660;2023-08-01T12:06:05;24.20;55.90
13115;DHT22;6623;52.120;8.660;2023-08-01T12:08:33;24.20;56.00
13115;DHT22;6623;52.120;8.660;2023-08-01T12:10:59;24.20;56.00
13115;DHT22;6623;52.120;8.660;2023-08-01T12:13:26;24.20;56.00
13115;DHT22;6623;52.120;8.660;2023-08-01T12:15:53;24.20;56.00
13115;DHT22;6623;52.120;8.660;2023-08-01T12:18:22;24.20;56.00
13115;DHT22;6623;52.120;8.660;2023-08-01T12:20:48;24.20;56.00
13115;DHT22;6623;52.120;8.660;2023-08-01T12:23:14;24.20;56.00
13115;DHT22;6623;52.120;8.660;2023-08-01T12:25:40;24.10;56.00
13115;DHT22;6623;52.120;8.660;2023-08-01T12:28:05;24.20;56.00
13115;DHT22;6623;52.120;8.660;2023-08-01T12:30:31;24.20;56.00
13115;DHT22;6623;52.120;8.660;2023-08-01T12:32:56;24.20;55.90
13115;DHT22;6623;52.120;8.660;2023-08-01T12:35:22;24.10;55.90
13115;DHT22;6623;52.120;8.660;2023-08-01T12:37:47;24.20;55.90
13115;DHT22;6623;52.120;8.660;2023-08-01T12:40:13;24.20;55.90
13115;DHT22;6623;52.120;8.660;2023-08-01T12:42:38;24.20;55.90
13115;DHT22;6623;52.120;8.660;2023-08-01T12:45:04;24.20;55.90
13115;DHT22;6623;52.120;8.660;2023-08-01T12:47:30;24.20;55.90
13115;DHT22;6623;52.120;8.660;2023-08-01T12:49:55;24.20;55.90
13115;DHT22;6623;52.120;8.660;2023-08-01T12:52:24;24.20;55.90
13115;DHT22;6623;52.120;8.660;2023-08-01T12:54:50;24.20;56.00
13115;DHT22;6623;52.120;8.660;2023-08-01T12:57:16;24.20;55.90
13115;DHT22;6623;52.120;8.660;2023-08-01T12:59:42;24.20;55.90
13115;DHT22;6623;52.120;8.660;2023-08-01T13:02:07;24.20;55.90
13115;DHT22;6623;52.120;8.660;2023-08-01T13:04:34;24.20;55.90
13115;DHT22;6623;52.120;8.660;2023-08-01T13:07:00;24.20;55.90
13115;DHT22;6623;52.120;8.660;2023-08-01T13:09:25;24.20;55.90
13115;DHT22;6623;52.120;8.660;2023-08-01T13:11:51;24.20;55.90
13115;DHT22;6623;52.120;8.660;2023-08-01T13:14:16;24.20;55.90
13115;DHT22;6623;52.120;8.660;2023-08-01T13:16:42;24.20;55.90
13115;DHT22;6623;52.120;8.660;2023-08-01T13:19:08;24.20;55.80
13115;DHT22;6623;52.120;8.660;2023-08-01T13:21:33;24.20;55.80
13115;DHT22;6623;52.120;8.660;2023-08-01T13:24:02;24.20;55.80
13115;DHT22;6623;52.120;8.660;2023-08-01T13:26:31;24.20;55.80
13115;DHT22;6623;52.120;8.660;2023-08-01T13:28:57;24.20;55.80
13115;DHT22;6623;52.120;8.660;2023-08-01T13:31:23;24.20;55.80
13115;DHT22;6623;52.120;8.660;2023-08-01T13:33:49;24.20;55.80
13115;DHT22;6623;52.120;8.660;2023-08-01T13:36:14;24.20;55.80
13115;DHT22;6623;52.120;8.660;2023-08-01T13:38:40;24.20;55.80
13115;DHT22;6623;52.120;8.660;2023-08-01T13:41:06;24.20;55.80
13115;DHT22;6623;52.120;8.660;2023-08-01T13:43:31;24.20;55.80
13115;DHT22;6623;52.120;8.660;2023-08-01T13:45:57;24.20;55.80
13115;DHT22;6623;52.120;8.660;2023-08-01T13:48:22;24.20;55.80
13115;DHT22;6623;52.120;8.660;2023-08-01T13:50:48;24.20;55.80
13115;DHT22;6623;52.120;8.660;2023-08-01T13:53:13;24.20;55.80
13115;DHT22;6623;52.120;8.660;2023-08-01T13:55:40;24.20;55.70
13115;DHT22;6623;52.120;8.660;2023-08-01T13:58:05;24.20;55.70
13115;DHT22;6623;52.120;8.660;2023-08-01T14:00:31;24.20;55.70
13115;DHT22;6623;52.120;8.660;2023-08-01T14:02:57;24.20;55.70
13115;DHT22;6623;52.120;8.660;2023-08-01T14:05:26;24.20;55.80
13115;DHT22;6623;52.120;8.660;2023-08-01T14:07:52;24.20;55.70
13115;DHT22;6623;52.120;8.660;2023-08-01T14:10:18;24.20;55.70
13115;DHT22;6623;52.120;8.660;2023-08-01T14:12:44;24.20;55.70
13115;DHT22;6623;52.120;8.660;2023-08-01T14:15:09;24.20;55.70
13115;DHT22;6623;52.120;8.660;2023-08-01T14:17:35;24.20;55.70
13115;DHT22;6623;52.120;8.660;2023-08-01T14:20:01;24.20;55.70
13115;DHT22;6623;52.120;8.660;2023-08-01T14:22:29;24.20;55.70
13115;DHT22;6623;52.120;8.660;2023-08-01T14:24:54;24.20;55.70
13115;DHT22;6623;52.120;8.660;2023-08-01T14:27:20;24.20;55.70
13115;DHT22;6623;52.120;8.660;2023-08-01T14:29:45;24.20;55.70
13115;DHT22;6623;52.120;8.660;2023-08-01T14:32:11;24.20;55.70
13115;DHT22;6623;52.120;8.660;2023-08-01T14:34:37;24.20;55.70
13115;DHT22;6623;52.120;8.660;2023-08-01T14:37:03;24.20;55.70
13115;DHT22;6623;52.120;8.660;2023-08-01T14:39:29;24.20;55.70
13115;DHT22;6623;52.120;8.660;2023-08-01T14:41:55;24.20;55.70
13115;DHT22;6623;52.120;8.660;2023-08-01T14:44:21;24.20;55.70
13115;DHT22;6623;52.120;8.660;2023-08-01T14:46:46;24.20;56.30
13115;DHT22;6623;52.120;8.660;2023-08-01T14:49:12;24.20;55.70
13115;DHT22;6623;52.120;8.660;2023-08-01T14:51:37;24.20;55.60
13115;DHT22;6623;52.120;8.660;2023-08-01T14:54:03;24.20;55.70
13115;DHT22;6623;52.120;8.660;2023-08-01T14:56:29;24.20;55.60
13115;DHT22;6623;52.120;8.660;2023-08-01T14:58:55;24.20;55.70
13115;DHT22;6623;52.120;8.660;2023-08-01T15:01:21;24.20;55.70
13115;DHT22;6623;52.120;8.660;2023-08-01T15:03:46;24.20;55.70
13115;DHT22;6623;52.120;8.660;2023-08-01T15:06:12;24.10;55.60
13115;DHT22;6623;52.120;8.660;2023-08-01T15:08:40;24.20;55.70
13115;DHT22;6623;52.120;8.660;2023-08-01T15:11:07;24.20;55.70
13115;DHT22;6623;52.120;8.660;2023-08-01T15:13:34;24.10;55.70
13115;DHT22;6623;52.120;8.660;2023-08-01T15:16:00;24.10;55.70
13115;DHT22;6623;52.120;8.660;2023-08-01T15:18:26;24.20;55.80
13115;DHT22;6623;52.120;8.660;2023-08-01T15:20:53;24.20;55.80
13115;DHT22;6623;52.120;8.660;2023-08-01T15:23:19;24.20;55.80
13115;DHT22;6623;52.120;8.660;2023-08-01T15:25:54;24.10;55.70
13115;DHT22;6623;52.120;8.660;2023-08-01T15:28:22;24.10;55.70
13115;DHT22;6623;52.120;8.660;2023-08-01T15:30:47;24.10;55.70
13115;DHT22;6623;52.120;8.660;2023-08-01T15:33:14;24.20;55.80
13115;DHT22;6623;52.120;8.660;2023-08-01T15:35:41;24.10;55.70
13115;DHT22;6623;52.120;8.660;2023-08-01T15:38:06;24.10;55.70
13115;DHT22;6623;52.120;8.660;2023-08-01T15:40:32;24.10;55.70